Data for 06/01/2005

Time Sea-Level Adjusted Pressure Absolute Pressure Temperature Relative Humidity Dew Point   
(mb) (inHg) (mb) (inHg) (C) (F) (%) (C) (F)
00:05 1011 29.85 840 24.81 11.5 52.7 69 6 42.9
00:10 1011 29.85 840 24.81 11.4 52.6 70 6.2 43.2
00:15 1011 29.85 840 24.81 11.2 52.1 71 6.2 43.2
00:20 1011 29.85 840 24.81 10.9 51.6 71 5.9 42.7
00:25 1011 29.85 840 24.81 10.9 51.5 71 5.9 42.6
00:30 1011 29.85 840 24.81 10.8 51.5 71 5.8 42.4
00:35 1011 29.85 840 24.81 10.9 51.6 70 5.6 42.1
00:40 1011 29.85 840 24.81 11.1 52 68 5.5 41.9
00:45 1011 29.85 840 24.81 11.4 52.5 67 5.6 42
00:50 1011 29.85 840 24.81 11.6 52.9 66 5.5 41.9
00:55 1011 29.85 840 24.81 11.6 52.8 66 5.5 42
01:00 1011 29.85 840 24.81 11.6 52.9 66 5.6 42.1
01:05 1010 29.83 840 24.81 11.6 52.9 66 5.4 41.8
01:10 1010 29.83 840 24.81 11.5 52.7 66 5.5 42
01:15 1010 29.83 840 24.81 11.5 52.7 66 5.4 41.8
01:20 1010 29.83 840 24.81 11.5 52.7 66 5.4 41.7
01:25 1010 29.83 839 24.78 11.4 52.6 66 5.3 41.6
01:30 1010 29.83 839 24.78 11.4 52.5 66 5.3 41.5
01:35 1010 29.83 839 24.78 11.3 52.3 67 5.4 41.7
01:40 1010 29.83 839 24.78 11.2 52.2 68 5.5 41.9
01:45 1010 29.83 839 24.78 11.2 52.1 68 5.4 41.8
01:50 1010 29.83 839 24.78 11.1 52 68 5.5 41.9
01:55 1010 29.83 839 24.78 11.2 52.1 68 5.4 41.8
02:00 1010 29.83 839 24.78 11.1 52 68 5.5 41.8
02:05 1010 29.83 839 24.78 11.2 52.2 68 5.5 41.9
02:10 1010 29.83 839 24.78 11.2 52.2 68 5.6 42.1
02:15 1010 29.83 839 24.78 11.2 52.1 69 5.6 42.1
02:20 1010 29.83 839 24.78 11.2 52.1 69 5.7 42.2
02:25 1010 29.83 839 24.78 11.1 52 71 6.1 43.1
02:30 1010 29.83 839 24.78 10.8 51.4 73 6.2 43.2
02:35 1010 29.83 839 24.78 10.4 50.8 79 6.9 44.5
02:40 1010 29.83 839 24.78 10.2 50.3 81 7.1 44.7
02:45 1010 29.83 839 24.78 10.1 50.2 83 7.3 45.2
02:50 1009 29.8 839 24.78 9.8 49.7 85 7.5 45.5
02:55 1009 29.8 839 24.78 9.7 49.4 86 7.4 45.4
03:00 1009 29.8 839 24.78 9.6 49.2 87 7.5 45.5
03:05 1009 29.8 839 24.78 9.5 49.1 87 7.5 45.5
03:10 1009 29.8 838 24.75 9.4 48.9 89 7.7 45.9
03:15 1009 29.8 838 24.75 9.4 49 89 7.7 45.8
03:20 1009 29.8 838 24.75 9.4 49 89 7.8 46
03:25 1009 29.8 838 24.75 9.4 48.9 88 7.4 45.4
03:30 1009 29.8 838 24.75 9.4 48.9 88 7.6 45.6
03:35 1009 29.8 838 24.75 9.4 48.8 88 7.5 45.5
03:40 1009 29.8 838 24.75 9.3 48.8 90 7.7 45.8
03:45 1009 29.8 838 24.75 9.2 48.5 91 7.8 46
03:50 1009 29.8 838 24.75 9.1 48.4 90 7.6 45.7
03:55 1009 29.8 838 24.75 9 48.1 92 7.7 45.8
04:00 1009 29.8 838 24.75 8.8 47.9 92 7.6 45.7
04:05 1009 29.8 838 24.75 8.7 47.7 93 7.7 45.8
04:10 1009 29.8 838 24.75 8.7 47.7 93 7.7 45.9
04:15 1009 29.8 838 24.75 8.7 47.6 94 7.8 46
04:20 1009 29.8 838 24.75 8.6 47.5 94 7.7 45.9
04:25 1009 29.8 838 24.75 8.6 47.4 94 7.7 45.9
04:30 1009 29.8 838 24.75 8.5 47.3 95 7.7 45.9
04:35 1009 29.8 838 24.75 8.5 47.3 95 7.8 46.1
04:40 1009 29.8 838 24.75 8.5 47.2 95 7.7 45.9
04:45 1009 29.8 838 24.75 8.3 47 96 7.7 45.9
04:50 1008 29.77 838 24.75 8.3 46.9 96 7.7 45.8
04:55 1008 29.77 837 24.72 8.3 46.9 96 7.6 45.8
05:00 1008 29.77 837 24.72 8.2 46.8 96 7.7 45.8
05:05 1008 29.77 837 24.72 8.2 46.7 96 7.6 45.7
05:10 1008 29.77 837 24.72 8.1 46.7 97 7.7 45.8
05:15 1008 29.77 837 24.72 8.1 46.6 97 7.7 45.9
05:20 1008 29.77 837 24.72 8.1 46.5 97 7.6 45.7
05:25 1008 29.77 837 24.72 7.9 46.2 96 7.4 45.3
05:30 1008 29.77 837 24.72 7.8 46.1 97 7.4 45.4
05:35 1008 29.77 837 24.72 7.8 46 97 7.4 45.3
05:40 1008 29.77 837 24.72 7.7 45.8 97 7.3 45.1
05:45 1008 29.77 837 24.72 7.6 45.6 98 7.2 45
05:50 1008 29.77 837 24.72 7.5 45.6 98 7.2 45
05:55 1008 29.77 837 24.72 7.5 45.5 98 7.2 44.9
06:00 1008 29.77 837 24.72 7.5 45.4 98 7.1 44.9
06:05 1008 29.77 837 24.72 7.5 45.5 98 7.2 44.9
06:10 1008 29.77 837 24.72 7.5 45.5 98 7.2 44.9
06:15 1008 29.77 837 24.72 7.4 45.3 98 7.1 44.8
06:20 1008 29.77 837 24.72 7.3 45.2 98 7 44.7
06:25 1008 29.77 837 24.72 7.3 45.1 98 6.9 44.5
06:30 1008 29.77 837 24.72 7.3 45.1 98 6.9 44.5
06:35 1008 29.77 837 24.72 7.2 45 97 6.8 44.3
06:40 1008 29.77 837 24.72 7.2 45 98 6.9 44.4
06:45 1008 29.77 837 24.72 7.3 45.2 97 6.9 44.4
06:50 1008 29.77 837 24.72 7.4 45.3 97 7 44.5
06:55 1008 29.77 837 24.72 7.4 45.3 96 6.8 44.3
07:00 1008 29.77 837 24.72 7.2 45 96 6.6 43.8
07:05 1008 29.77 837 24.72 7.1 44.8 95 6.4 43.5
07:10 1008 29.77 837 24.72 7.1 44.8 95 6.3 43.4
07:15 1008 29.77 837 24.72 7 44.7 96 6.4 43.5
07:20 1008 29.77 837 24.72 7.1 44.8 95 6.4 43.6
07:25 1008 29.77 837 24.72 6.9 44.4 94 6 42.8
07:30 1008 29.77 837 24.72 6.8 44.2 94 5.9 42.6
07:35 1008 29.77 837 24.72 6.7 44.1 94 5.9 42.6
07:40 1008 29.77 837 24.72 6.8 44.2 94 5.9 42.6
07:45 1008 29.77 837 24.72 6.7 44.1 95 6 42.8
07:50 1008 29.77 837 24.72 6.7 44.1 95 6 42.8
07:55 1008 29.77 837 24.72 6.7 44 95 5.9 42.5
08:00 1008 29.77 837 24.72 6.6 43.8 95 5.9 42.6
08:05 1008 29.77 837 24.72 6.6 43.9 95 5.8 42.5
08:10 1008 29.77 837 24.72 6.6 43.8 96 5.9 42.7
08:15 1008 29.77 837 24.72 6.6 43.9 96 5.9 42.7
08:20 1008 29.77 837 24.72 6.6 44 95 6 42.7
08:25 1008 29.77 837 24.72 6.6 43.9 95 5.8 42.5
08:30 1008 29.77 837 24.72 6.5 43.7 94 5.6 42
08:35 1008 29.77 837 24.72 6.4 43.6 94 5.5 41.9
08:40 1008 29.77 837 24.72 6.3 43.3 93 5.3 41.6
08:45 1008 29.77 837 24.72 6.3 43.3 94 5.4 41.8
08:50 1008 29.77 837 24.72 6.2 43.2 94 5.3 41.6
08:55 1008 29.77 837 24.72 6.2 43.2 95 5.4 41.7
09:00 1008 29.77 837 24.72 6.2 43.2 94 5.3 41.6
09:05 1008 29.77 838 24.75 6.1 43.1 95 5.3 41.6
09:10 1008 29.77 838 24.75 6.1 42.9 94 5.2 41.3
09:15 1008 29.77 838 24.75 6.1 42.9 93 5 41.1
09:20 1008 29.77 838 24.75 6.1 43 91 4.8 40.6
09:25 1008 29.77 838 24.75 6.2 43.1 91 4.8 40.6
09:30 1008 29.77 838 24.75 6.2 43.1 93 5.1 41.2
09:35 1008 29.77 838 24.75 6 42.8 88 4.2 39.6
09:40 1008 29.77 838 24.75 6 42.8 91 4.7 40.4
09:45 1008 29.77 838 24.75 6 42.8 90 4.4 40
09:50 1009 29.8 838 24.75 5.8 42.5 86 3.7 38.7
09:55 1009 29.8 838 24.75 5.5 41.8 88 3.7 38.6
10:00 1009 29.8 838 24.75 5.3 41.6 87 3.4 38.1
10:05 1009 29.8 838 24.75 5.3 41.6 88 3.5 38.2
10:10 1009 29.8 838 24.75 5.4 41.7 89 3.7 38.7
10:15 1009 29.8 838 24.75 5.6 42.2 87 3.7 38.7
10:20 1009 29.8 838 24.75 5.7 42.3 88 3.8 38.8
10:25 1009 29.8 838 24.75 5.8 42.4 89 4.2 39.5
10:30 1009 29.8 838 24.75 6 42.7 90 4.5 40.1
10:35 1009 29.8 838 24.75 6.3 43.4 85 4 39.3
10:40 1009 29.8 838 24.75 6.3 43.3 88 4.4 40
10:45 1009 29.8 838 24.75 6.5 43.6 88 4.7 40.4
10:50 1009 29.8 838 24.75 6.5 43.7 87 4.5 40
10:55 1009 29.8 838 24.75 6.2 43.2 88 4.4 39.9
11:00 1009 29.8 838 24.75 6.2 43.1 88 4.3 39.7
11:05 1009 29.8 838 24.75 6.1 43.1 88 4.3 39.8
11:10 1009 29.8 838 24.75 6 42.8 90 4.4 40
11:15 1009 29.8 838 24.75 6.1 43 90 4.7 40.4
11:20 1009 29.8 838 24.75 5.9 42.7 92 4.8 40.6
11:25 1009 29.8 838 24.75 5.9 42.6 92 4.6 40.3
11:30 1009 29.8 838 24.75 5.8 42.5 89 4.1 39.4
11:35 1009 29.8 839 24.78 5.8 42.4 90 4.2 39.5
11:40 1009 29.8 839 24.78 5.7 42.3 92 4.4 40
11:45 1009 29.8 839 24.78 5.6 42 93 4.5 40.1
11:50 1010 29.83 839 24.78 5.4 41.7 92 4.2 39.6
11:55 1010 29.83 839 24.78 5.1 41.2 92 4 39.1
12:00 1010 29.83 839 24.78 5.1 41.2 93 4.1 39.4
12:05 1010 29.83 839 24.78 5.1 41.2 93 4 39.3
12:10 1010 29.83 839 24.78 5.2 41.3 95 4.4 39.9
12:15 1010 29.83 839 24.78 5.3 41.6 92 4.1 39.4
12:20 1010 29.83 839 24.78 5.3 41.6 91 4 39.2
12:25 1010 29.83 839 24.78 5.3 41.6 92 4 39.3
12:30 1010 29.83 839 24.78 5.4 41.7 92 4.2 39.5
12:35 1010 29.83 839 24.78 5.4 41.8 93 4.4 39.9
12:40 1010 29.83 839 24.78 5.5 41.9 93 4.5 40.1
12:45 1010 29.83 839 24.78 5.6 42.1 92 4.4 40
12:50 1010 29.83 839 24.78 5.8 42.4 91 4.5 40.1
12:55 1010 29.83 839 24.78 5.9 42.6 93 4.8 40.7
13:00 1010 29.83 839 24.78 6 42.8 92 4.8 40.7
13:05 1010 29.83 839 24.78 6.2 43.2 92 5 41
13:10 1010 29.83 839 24.78 6.4 43.6 93 5.3 41.6
13:15 1010 29.83 840 24.81 6.4 43.6 93 5.5 41.8
13:20 1010 29.83 840 24.81 6.4 43.5 93 5.3 41.6
13:25 1010 29.83 840 24.81 6.1 42.9 89 4.5 40
13:30 1010 29.83 840 24.81 5.8 42.5 94 4.9 40.7
13:35 1010 29.83 840 24.81 5.9 42.7 94 5.1 41.2
13:40 1010 29.83 840 24.81 6 42.9 94 5.1 41.2
13:45 1011 29.85 840 24.81 6.1 43 92 4.9 40.8
13:50 1011 29.85 840 24.81 6.2 43.1 92 5.1 41.1
13:55 1011 29.85 840 24.81 6.2 43.1 92 5 41
14:00 1011 29.85 840 24.81 6.2 43.1 93 5.1 41.1
14:05 1011 29.85 840 24.81 6.3 43.3 93 5.2 41.4
14:10 1011 29.85 840 24.81 6.3 43.4 92 5.2 41.3
14:15 1011 29.85 840 24.81 6.3 43.4 92 5.2 41.4
14:20 1011 29.85 840 24.81 6.2 43.2 93 5.2 41.3
14:25 1011 29.85 840 24.81 6.2 43.1 93 5.2 41.3
14:30 1011 29.85 840 24.81 6.2 43.2 92 5.1 41.1
14:35 1011 29.85 840 24.81 6.2 43.2 92 5 41
14:40 1011 29.85 840 24.81 6.3 43.3 93 5.2 41.4
14:45 1011 29.85 840 24.81 6.3 43.3 93 5.3 41.5
14:50 1011 29.85 840 24.81 6.3 43.4 93 5.3 41.5
14:55 1011 29.85 840 24.81 6.4 43.5 92 5.2 41.4
15:00 1011 29.85 840 24.81 6.4 43.6 91 5.1 41.2
15:05 1011 29.85 840 24.81 6.6 43.8 93 5.5 41.8
15:10 1011 29.85 840 24.81 6.7 44.1 92 5.5 41.9
15:15 1011 29.85 840 24.81 7 44.6 84 4.4 39.9
15:20 1011 29.85 840 24.81 7.2 44.9 83 4.4 40
15:25 1011 29.85 840 24.81 7.2 45 82 4.4 39.9
15:30 1011 29.85 840 24.81 7.2 45 81 4.2 39.6
15:35 1011 29.85 840 24.81 7.2 44.9 80 4 39.3
15:40 1011 29.85 840 24.81 7.2 45 83 4.6 40.3
15:45 1011 29.85 840 24.81 7.3 45.1 82 4.5 40
15:50 1011 29.85 840 24.81 7.3 45.1 83 4.6 40.3
15:55 1011 29.85 841 24.83 7.4 45.3 85 5.1 41.1
16:00 1012 29.88 841 24.83 7.3 45.2 84 4.8 40.7
16:05 1012 29.88 841 24.83 7.4 45.3 85 5.1 41.1
16:10 1012 29.88 841 24.83 7.5 45.5 82 4.7 40.4
16:15 1012 29.88 841 24.83 7.6 45.6 83 4.8 40.7
16:20 1012 29.88 841 24.83 7.6 45.8 84 5.1 41.1
16:25 1012 29.88 841 24.83 7.7 45.8 84 5.1 41.2
16:30 1012 29.88 841 24.83 7.7 45.8 85 5.2 41.4
16:35 1012 29.88 841 24.83 7.7 45.9 81 4.7 40.5
16:40 1012 29.88 841 24.83 7.3 45.2 83 4.6 40.2
16:45 1012 29.88 841 24.83 7.2 44.9 86 4.9 40.8
16:50 1012 29.88 841 24.83 7.2 44.9 88 5.2 41.4
16:55 1012 29.88 841 24.83 7.2 44.9 86 5 41
17:00 1012 29.88 841 24.83 7.2 44.9 87 5.1 41.2
17:05 1012 29.88 841 24.83 7 44.7 86 4.9 40.8
17:10 1012 29.88 841 24.83 7 44.7 85 4.7 40.5
17:15 1012 29.88 841 24.83 7.2 45 87 5.3 41.5
17:20 1012 29.88 841 24.83 7.3 45.1 88 5.4 41.8
17:25 1012 29.88 841 24.83 7.3 45.2 88 5.5 41.9
17:30 1012 29.88 841 24.83 7.5 45.5 89 5.8 42.4
17:35 1012 29.88 841 24.83 7.7 45.9 88 5.9 42.6
17:40 1012 29.88 841 24.83 7.9 46.3 88 6.1 42.9
17:45 1012 29.88 841 24.83 8.1 46.5 87 6 42.9
17:50 1012 29.88 841 24.83 8 46.4 88 6.1 42.9
17:55 1012 29.88 841 24.83 7.9 46.1 88 5.9 42.7
18:00 1012 29.88 841 24.83 7.7 45.9 88 5.9 42.6
18:05 1012 29.88 841 24.83 7.7 45.8 90 6.2 43.1
18:10 1012 29.88 841 24.83 7.5 45.5 89 5.8 42.5
18:15 1012 29.88 841 24.83 7.5 45.5 89 5.9 42.6
18:20 1012 29.88 841 24.83 7.4 45.2 91 5.9 42.7
18:25 1012 29.88 842 24.86 7.4 45.3 90 5.8 42.5
18:30 1012 29.88 842 24.86 7.3 45.2 90 5.8 42.5
18:35 1012 29.88 842 24.86 7.3 45.2 90 5.8 42.4
18:40 1012 29.88 842 24.86 7.4 45.2 90 5.8 42.4
18:45 1012 29.88 842 24.86 7.4 45.4 89 5.7 42.2
18:50 1012 29.88 842 24.86 7.5 45.4 88 5.6 42.1
18:55 1012 29.88 842 24.86 7.4 45.4 88 5.6 42.1
19:00 1012 29.88 842 24.86 7.4 45.3 88 5.6 42
19:05 1012 29.88 842 24.86 7.4 45.4 88 5.5 42
19:10 1013 29.91 842 24.86 7.5 45.6 87 5.5 42
19:15 1013 29.91 842 24.86 7.5 45.6 89 5.9 42.5
19:20 1013 29.91 842 24.86 7.5 45.6 88 5.6 42.1
19:25 1013 29.91 842 24.86 7.6 45.6 87 5.5 41.9
19:30 1013 29.91 842 24.86 7.5 45.5 86 5.3 41.6
19:35 1013 29.91 842 24.86 7.5 45.5 87 5.5 42
19:40 1013 29.91 842 24.86 7.5 45.4 87 5.5 41.8
19:45 1013 29.91 842 24.86 7.3 45.2 87 5.2 41.4
19:50 1013 29.91 842 24.86 7.3 45.2 88 5.4 41.8
19:55 1013 29.91 842 24.86 7.3 45.1 87 5.3 41.6
20:00 1013 29.91 842 24.86 7.3 45.1 87 5.3 41.5
20:05 1013 29.91 842 24.86 7.4 45.2 88 5.5 42
20:10 1013 29.91 842 24.86 7.3 45.2 87 5.2 41.4
20:15 1013 29.91 842 24.86 7.4 45.2 86 5.2 41.3
20:20 1013 29.91 842 24.86 7.4 45.2 86 5.1 41.2
20:25 1013 29.91 842 24.86 7.4 45.3 86 5.2 41.4
20:30 1013 29.91 842 24.86 7.4 45.3 87 5.3 41.5
20:35 1013 29.91 842 24.86 7.4 45.3 85 5 41.1
20:40 1013 29.91 842 24.86 7.3 45.1 82 4.5 40
20:45 1013 29.91 842 24.86 7.2 45 83 4.6 40.2
20:50 1013 29.91 842 24.86 7.1 44.7 84 4.5 40.1
20:55 1013 29.91 842 24.86 6.9 44.5 83 4.3 39.8
21:00 1013 29.91 842 24.86 6.9 44.3 86 4.6 40.4
21:05 1013 29.91 842 24.86 6.7 44.1 84 4.1 39.4
21:10 1013 29.91 842 24.86 6.7 44 85 4.4 39.8
21:15 1013 29.91 842 24.86 6.6 43.9 85 4.2 39.6
21:20 1013 29.91 842 24.86 6.5 43.7 85 4.2 39.5
21:25 1013 29.91 842 24.86 6.4 43.5 86 4.3 39.7
21:30 1013 29.91 843 24.89 6.4 43.4 86 4.3 39.7
21:35 1013 29.91 843 24.89 6.3 43.4 86 4.2 39.5
21:40 1013 29.91 843 24.89 6.3 43.3 87 4.3 39.8
21:45 1013 29.91 843 24.89 6.2 43.2 87 4.2 39.6
21:50 1014 29.94 843 24.89 6.2 43.2 88 4.3 39.8
21:55 1014 29.94 843 24.89 6.2 43.2 87 4.3 39.7
22:00 1014 29.94 843 24.89 6.2 43.2 89 4.4 40
22:05 1014 29.94 843 24.89 6.2 43.1 87 4.2 39.5
22:10 1013 29.91 843 24.89 6.1 43 87 4.1 39.4
22:15 1014 29.94 843 24.89 6.1 43.1 87 4.2 39.5
22:20 1014 29.94 843 24.89 6.2 43.1 88 4.4 39.9
22:25 1013 29.91 843 24.89 6.1 42.9 89 4.3 39.8
22:30 1013 29.91 843 24.89 5.8 42.5 91 4.4 40
22:35 1013 29.91 843 24.89 5.7 42.2 91 4.3 39.8
22:40 1013 29.91 843 24.89 5.7 42.2 90 4.2 39.6
22:45 1013 29.91 843 24.89 5.8 42.4 89 4.1 39.5
22:50 1013 29.91 843 24.89 5.8 42.4 89 4 39.2
22:55 1013 29.91 842 24.86 5.8 42.4 87 3.7 38.7
23:00 1013 29.91 842 24.86 5.8 42.4 86 3.7 38.7
23:05 1013 29.91 842 24.86 5.8 42.4 89 4.1 39.4
23:10 1013 29.91 842 24.86 5.7 42.2 88 3.8 38.8
23:15 1013 29.91 842 24.86 5.6 42.2 88 3.8 38.9
23:20 1013 29.91 842 24.86 5.6 42.1 88 3.8 38.8
23:25 1013 29.91 842 24.86 5.8 42.5 88 4 39.1
23:30 1013 29.91 842 24.86 6 42.7 87 3.9 39
23:35 1013 29.91 842 24.86 6.1 43 86 3.9 39.1
23:40 1013 29.91 842 24.86 6.3 43.4 85 4 39.1
23:45 1013 29.91 842 24.86 6.4 43.5 83 3.7 38.7
23:50 1013 29.91 842 24.86 6.4 43.5 85 4.1 39.4
23:55 1013 29.91 842 24.86 6.4 43.6 86 4.4 39.8
24:00 1013 29.91 842 24.86 6.3 43.4 87 4.3 39.7